createdAt,value
2023-04-16T00:01:04.484Z,23.33
2023-04-16T00:03:31.419Z,21.60
2023-04-16T00:05:58.235Z,22.77
2023-04-16T00:08:25.026Z,29.85
2023-04-16T00:10:53.761Z,28.83
2023-04-16T00:13:20.906Z,23.10
2023-04-16T00:15:47.697Z,22.20
2023-04-16T00:18:14.598Z,26.10
2023-04-16T00:20:41.370Z,17.50
2023-04-16T00:23:08.111Z,21.27
2023-04-16T00:25:34.830Z,26.13
2023-04-16T00:28:01.586Z,27.33
2023-04-16T00:30:28.363Z,21.58
2023-04-16T00:32:55.122Z,20.10
2023-04-16T00:35:21.909Z,23.38
2023-04-16T00:37:48.714Z,25.40
2023-04-16T00:40:15.512Z,28.95
2023-04-16T00:42:42.226Z,25.95
2023-04-16T00:45:10.060Z,16.98
2023-04-16T00:47:36.931Z,28.40
2023-04-16T00:50:04.680Z,20.58
2023-04-16T00:52:35.143Z,31.98
2023-04-16T00:55:01.914Z,25.85
2023-04-16T00:57:28.737Z,26.60
2023-04-16T00:59:56.616Z,41.25
2023-04-16T01:02:23.793Z,30.08
2023-04-16T01:04:51.828Z,21.33
2023-04-16T01:07:18.601Z,27.00
2023-04-16T01:09:45.522Z,23.25
2023-04-16T01:12:12.274Z,16.65
2023-04-16T01:14:39.090Z,25.17
2023-04-16T01:17:06.038Z,26.80
2023-04-16T01:19:32.795Z,26.65
2023-04-16T01:21:59.628Z,31.15
2023-04-16T01:24:26.521Z,25.30
2023-04-16T01:26:53.518Z,17.65
2023-04-16T01:29:20.300Z,20.27
2023-04-16T01:31:47.177Z,20.75
2023-04-16T01:34:13.987Z,37.38
2023-04-16T01:36:40.697Z,24.50
2023-04-16T01:39:07.630Z,23.02
2023-04-16T01:41:34.593Z,23.65
2023-04-16T01:44:01.364Z,24.80
2023-04-16T01:46:31.158Z,28.42
2023-04-16T01:48:58.551Z,17.27
2023-04-16T01:51:25.409Z,20.75
2023-04-16T01:53:52.087Z,37.85
2023-04-16T01:56:18.855Z,25.05
2023-04-16T01:58:46.596Z,19.13
2023-04-16T02:01:14.096Z,17.35
2023-04-16T02:03:41.728Z,18.13
2023-04-16T02:06:08.810Z,20.05
2023-04-16T02:08:35.722Z,27.05
2023-04-16T02:11:02.507Z,23.55
2023-04-16T02:13:29.274Z,21.92
2023-04-16T02:15:56.145Z,19.92
2023-04-16T02:18:22.919Z,20.35
2023-04-16T02:20:50.022Z,24.10
2023-04-16T02:23:16.731Z,20.52
2023-04-16T02:25:46.035Z,16.98
2023-04-16T02:28:15.840Z,24.90
2023-04-16T02:30:43.238Z,23.38
2023-04-16T02:33:11.856Z,22.50
2023-04-16T02:35:39.551Z,17.95
2023-04-16T02:38:06.428Z,21.60
2023-04-16T02:40:33.531Z,18.13
2023-04-16T02:43:00.665Z,27.38
2023-04-16T02:45:28.020Z,28.98
2023-04-16T02:47:54.778Z,31.77
2023-04-16T02:50:21.604Z,21.50
2023-04-16T02:52:48.704Z,17.00
2023-04-16T02:55:15.607Z,20.23
2023-04-16T02:57:42.733Z,22.80
2023-04-16T03:00:10.157Z,19.73
2023-04-16T03:02:37.028Z,16.92
2023-04-16T03:05:04.535Z,17.98
2023-04-16T03:07:31.243Z,21.70
2023-04-16T03:09:58.049Z,22.05
2023-04-16T03:12:24.846Z,20.77
2023-04-16T03:14:52.817Z,13.60
2023-04-16T03:17:19.608Z,15.30
2023-04-16T03:19:46.420Z,18.25
2023-04-16T03:22:13.145Z,25.45
2023-04-16T03:24:39.942Z,21.90
2023-04-16T03:27:06.642Z,13.98
2023-04-16T03:29:33.394Z,15.70
2023-04-16T03:32:00.118Z,19.40
2023-04-16T03:34:27.059Z,18.30
2023-04-16T03:36:53.772Z,17.95
2023-04-16T03:39:20.703Z,20.48
2023-04-16T03:41:47.536Z,22.48
2023-04-16T03:44:14.266Z,13.68
2023-04-16T03:46:41.127Z,13.80
2023-04-16T03:49:08.636Z,22.95
2023-04-16T03:51:35.648Z,17.85
2023-04-16T03:54:02.425Z,20.40
2023-04-16T03:56:29.217Z,15.57
2023-04-16T03:58:56.059Z,19.52
2023-04-16T04:01:22.799Z,23.95
2023-04-16T04:03:49.862Z,17.52
2023-04-16T04:06:16.787Z,15.85
2023-04-16T04:08:43.626Z,16.65
2023-04-16T04:11:10.379Z,23.10
2023-04-16T04:13:37.077Z,21.90
2023-04-16T04:16:04.757Z,24.25
2023-04-16T04:18:32.061Z,19.35
2023-04-16T04:20:58.762Z,27.15
2023-04-16T04:23:25.493Z,24.38
2023-04-16T04:25:52.287Z,19.38
2023-04-16T04:28:19.045Z,26.77
2023-04-16T04:30:45.856Z,23.58
2023-04-16T04:33:12.595Z,33.35
2023-04-16T04:35:39.274Z,24.52
2023-04-16T04:38:06.151Z,18.15
2023-04-16T04:40:33.053Z,21.55
2023-04-16T04:42:59.784Z,20.60
2023-04-16T04:45:26.876Z,24.25
2023-04-16T04:47:54.030Z,17.63
2023-04-16T04:50:21.800Z,22.20
2023-04-16T04:52:48.514Z,21.63
2023-04-16T04:55:16.206Z,17.95
2023-04-16T04:57:43.007Z,22.85
2023-04-16T05:00:10.328Z,17.92
2023-04-16T05:02:37.500Z,17.00
2023-04-16T05:05:05.299Z,19.90
2023-04-16T05:07:32.360Z,15.57
2023-04-16T05:09:59.091Z,22.80
2023-04-16T05:12:25.966Z,27.13
2023-04-16T05:14:52.688Z,20.25
2023-04-16T05:17:19.466Z,19.48
2023-04-16T05:19:46.188Z,17.73
2023-04-16T05:22:13.190Z,23.90
2023-04-16T05:24:39.926Z,22.73
2023-04-16T05:27:06.650Z,19.30
2023-04-16T05:29:33.341Z,33.28
2023-04-16T05:32:00.142Z,19.75
2023-04-16T05:34:28.126Z,28.73
2023-04-16T05:36:54.890Z,22.15
2023-04-16T05:39:21.776Z,18.90
2023-04-16T05:41:48.623Z,18.80
2023-04-16T05:44:15.505Z,22.30
2023-04-16T05:46:42.316Z,16.30
2023-04-16T05:49:11.243Z,23.10
2023-04-16T05:51:38.175Z,16.90
2023-04-16T05:54:04.917Z,18.33
2023-04-16T05:56:31.602Z,14.45
2023-04-16T05:58:58.342Z,17.80
2023-04-16T06:01:25.688Z,24.25
2023-04-16T06:03:52.413Z,22.02
2023-04-16T06:06:19.182Z,22.45
2023-04-16T06:08:46.080Z,24.77
2023-04-16T06:11:12.919Z,20.83
2023-04-16T06:13:39.890Z,21.85
2023-04-16T06:16:06.899Z,20.77
2023-04-16T06:18:33.687Z,17.35
2023-04-16T06:21:00.444Z,18.00
2023-04-16T06:23:27.184Z,14.70
2023-04-16T06:25:54.462Z,14.98
2023-04-16T06:28:21.161Z,21.42
2023-04-16T06:30:48.190Z,18.00
2023-04-16T06:33:14.891Z,17.33
2023-04-16T06:35:41.739Z,19.60
2023-04-16T06:38:08.469Z,16.48
2023-04-16T06:40:37.140Z,17.73
2023-04-16T06:43:04.347Z,18.00
2023-04-16T06:45:31.239Z,15.52
2023-04-16T06:47:59.190Z,13.07
2023-04-16T06:50:27.037Z,15.30
2023-04-16T06:52:53.898Z,16.25
2023-04-16T06:55:20.920Z,17.27
2023-04-16T06:57:47.610Z,15.75
2023-04-16T07:00:14.536Z,16.73
2023-04-16T07:02:41.425Z,16.38
2023-04-16T07:05:09.154Z,14.75
2023-04-16T07:07:36.003Z,13.55
2023-04-16T07:10:03.099Z,10.60
2023-04-16T07:12:31.863Z,12.43
2023-04-16T07:14:58.594Z,12.38
2023-04-16T07:17:25.359Z,17.20
2023-04-16T07:19:52.343Z,12.38
2023-04-16T07:22:19.272Z,11.30
2023-04-16T07:24:46.043Z,10.68
2023-04-16T07:27:13.191Z,12.95
2023-04-16T07:29:40.044Z,11.60
2023-04-16T07:32:07.790Z,14.07
2023-04-16T07:34:34.548Z,12.07
2023-04-16T07:37:01.293Z,11.38
2023-04-16T07:39:28.020Z,11.40
2023-04-16T07:41:55.121Z,11.93
2023-04-16T07:44:21.899Z,8.88
2023-04-16T07:46:48.867Z,8.93
2023-04-16T07:49:15.715Z,10.82
2023-04-16T07:51:42.640Z,9.25
2023-04-16T07:54:10.252Z,7.90
2023-04-16T07:56:36.935Z,7.22
2023-04-16T07:59:21.141Z,4.30
2023-04-16T08:01:50.273Z,8.73
2023-04-16T08:04:23.329Z,5.68
2023-04-16T08:06:51.651Z,6.40
2023-04-16T08:09:20.245Z,7.93
2023-04-16T08:11:47.139Z,6.03
2023-04-16T08:14:13.909Z,7.72
2023-04-16T08:16:40.719Z,5.35
2023-04-16T08:19:07.618Z,7.38
2023-04-16T08:21:34.799Z,9.40
2023-04-16T08:24:01.562Z,6.95
2023-04-16T08:26:28.349Z,7.18
2023-04-16T08:28:55.108Z,6.20
2023-04-16T08:31:21.890Z,6.80
2023-04-16T08:33:48.692Z,5.72
2023-04-16T08:36:15.804Z,6.82
2023-04-16T08:38:42.607Z,6.28
2023-04-16T08:41:12.972Z,7.38
2023-04-16T08:43:44.804Z,4.15
2023-04-16T08:46:12.553Z,9.18
2023-04-16T08:48:42.397Z,6.32
2023-04-16T08:51:11.275Z,8.48
2023-04-16T08:53:53.390Z,7.00
2023-04-16T08:56:24.860Z,9.90
2023-04-16T08:58:53.972Z,8.30
2023-04-16T09:01:21.577Z,7.93
2023-04-16T09:03:49.431Z,5.93
2023-04-16T09:06:16.942Z,5.72
2023-04-16T09:08:48.279Z,6.68
2023-04-16T09:11:18.290Z,7.47
2023-04-16T09:13:46.402Z,6.50
2023-04-16T09:16:14.033Z,8.95
2023-04-16T09:18:41.481Z,6.57
2023-04-16T09:21:11.278Z,4.63
2023-04-16T09:23:39.081Z,6.13
2023-04-16T09:26:06.238Z,7.97
2023-04-16T09:28:40.796Z,6.45
2023-04-16T09:31:11.807Z,6.32
2023-04-16T09:33:38.785Z,10.68
2023-04-16T09:36:07.049Z,9.35
2023-04-16T09:38:51.100Z,6.00
2023-04-16T09:41:18.541Z,5.53
2023-04-16T09:43:57.922Z,8.45
2023-04-16T09:46:34.014Z,6.88
2023-04-16T09:49:13.543Z,7.18
2023-04-16T09:51:45.467Z,7.95
2023-04-16T09:54:12.539Z,5.40
2023-04-16T09:56:43.966Z,8.15
2023-04-16T09:59:24.344Z,4.75
2023-04-16T10:01:53.558Z,8.75
2023-04-16T10:04:51.545Z,6.18
2023-04-16T10:07:19.338Z,7.20
2023-04-16T10:09:48.626Z,3.95
2023-04-16T10:12:16.421Z,5.90
2023-04-16T10:14:43.375Z,4.47
2023-04-16T10:17:10.266Z,5.35
2023-04-16T10:19:37.574Z,5.03
2023-04-16T10:22:05.178Z,6.40
2023-04-16T10:24:39.818Z,5.00
2023-04-16T10:27:06.687Z,6.95
2023-04-16T10:29:34.633Z,5.28
2023-04-16T10:32:02.168Z,5.03
2023-04-16T10:34:29.361Z,5.32
2023-04-16T10:36:56.276Z,5.90
2023-04-16T10:39:25.800Z,8.68
2023-04-16T10:42:11.082Z,5.95
2023-04-16T10:44:38.275Z,7.30
2023-04-16T10:47:12.475Z,4.63
2023-04-16T10:49:39.590Z,6.45
2023-04-16T10:54:59.409Z,5.40
2023-04-16T10:57:29.897Z,8.95
2023-04-16T10:59:56.552Z,9.02
2023-04-16T11:02:29.151Z,8.20
2023-04-16T11:04:57.929Z,7.13
2023-04-16T11:07:35.331Z,6.72
2023-04-16T11:10:06.141Z,10.65
2023-04-16T11:12:38.211Z,9.25
2023-04-16T11:15:10.217Z,12.23
2023-04-16T11:17:38.965Z,7.03
2023-04-16T11:20:17.865Z,8.85
2023-04-16T11:22:47.463Z,10.23
2023-04-16T11:25:20.109Z,9.05
2023-04-16T11:27:46.803Z,9.15
2023-04-16T11:30:13.707Z,5.88
2023-04-16T11:32:40.844Z,13.25
2023-04-16T11:35:33.622Z,6.90
2023-04-16T11:38:00.514Z,6.67
2023-04-16T11:40:31.720Z,8.48
2023-04-16T11:43:03.350Z,8.38
2023-04-16T11:45:30.072Z,9.32
2023-04-16T11:47:58.023Z,6.45
2023-04-16T11:50:27.469Z,10.73
2023-04-16T11:53:03.681Z,10.80
2023-04-16T11:55:30.454Z,9.68
2023-04-16T11:57:57.144Z,9.32
2023-04-16T12:00:24.930Z,7.80
2023-04-16T12:02:53.915Z,7.60
2023-04-16T12:05:35.129Z,9.13
2023-04-16T12:08:04.248Z,6.88
2023-04-16T12:10:37.267Z,5.72
2023-04-16T12:13:12.884Z,9.63
2023-04-16T12:15:49.758Z,12.18
2023-04-16T12:18:17.246Z,9.95
2023-04-16T12:20:45.697Z,11.20
2023-04-16T12:23:26.921Z,9.68
2023-04-16T12:25:54.928Z,11.70
2023-04-16T12:28:33.113Z,9.07
2023-04-16T12:31:00.844Z,9.23
2023-04-16T12:33:27.681Z,9.10
2023-04-16T12:35:55.008Z,9.02
2023-04-16T12:38:24.265Z,8.07
2023-04-16T12:40:51.921Z,10.35
2023-04-16T12:43:19.909Z,7.40
2023-04-16T12:45:46.769Z,6.38
2023-04-16T12:48:13.659Z,8.02
2023-04-16T12:50:40.383Z,7.38
2023-04-16T12:53:09.337Z,5.45
2023-04-16T12:55:36.170Z,9.57
2023-04-16T12:58:03.088Z,8.23
2023-04-16T13:00:29.925Z,8.57
2023-04-16T13:02:56.735Z,9.68
2023-04-16T13:05:23.591Z,7.43
2023-04-16T13:07:50.402Z,9.70
2023-04-16T13:10:17.577Z,10.52
2023-04-16T13:12:44.342Z,8.80
2023-04-16T13:15:11.460Z,7.57
2023-04-16T13:17:38.303Z,10.80
2023-04-16T13:20:05.461Z,7.85
2023-04-16T13:22:32.523Z,8.35
2023-04-16T13:24:59.352Z,7.32
2023-04-16T13:27:26.361Z,6.97
2023-04-16T13:29:53.416Z,8.35
2023-04-16T13:32:20.504Z,13.65
2023-04-16T13:34:47.579Z,7.93
2023-04-16T13:37:14.365Z,9.07
2023-04-16T13:39:41.559Z,8.80
2023-04-16T13:42:08.433Z,11.20
2023-04-16T13:44:35.312Z,6.57
2023-04-16T13:47:02.129Z,7.50
2023-04-16T13:49:35.042Z,11.60
2023-04-16T13:52:02.500Z,6.85
2023-04-16T13:54:29.235Z,10.48
2023-04-16T13:56:56.192Z,6.97
2023-04-16T13:59:23.119Z,10.70
2023-04-16T14:01:50.020Z,9.10
2023-04-16T14:04:16.890Z,7.43
2023-04-16T14:06:43.636Z,9.60
2023-04-16T14:09:11.177Z,8.55
2023-04-16T14:11:38.214Z,12.60
2023-04-16T14:14:05.530Z,10.60
2023-04-16T14:16:32.513Z,10.73
2023-04-16T14:18:59.375Z,11.30
2023-04-16T14:21:27.156Z,6.90
2023-04-16T14:23:53.944Z,12.02
2023-04-16T14:26:21.239Z,12.75
2023-04-16T14:28:48.396Z,11.13
2023-04-16T14:31:15.094Z,7.40
2023-04-16T14:33:41.937Z,8.65
2023-04-16T14:36:08.985Z,10.23
2023-04-16T14:38:35.881Z,8.18
2023-04-16T14:41:02.979Z,10.55
2023-04-16T14:43:29.823Z,11.75
2023-04-16T14:45:58.288Z,9.45
2023-04-16T14:48:25.101Z,9.40
2023-04-16T14:50:51.895Z,8.23
2023-04-16T14:53:23.928Z,8.93
2023-04-16T14:55:52.171Z,10.25
2023-04-16T14:58:19.520Z,10.02
2023-04-16T15:00:46.223Z,7.70
2023-04-16T15:03:13.163Z,13.38
2023-04-16T15:05:39.946Z,10.82
2023-04-16T15:08:07.452Z,10.57
2023-04-16T15:13:15.751Z,11.45
2023-04-16T15:15:42.683Z,12.15
2023-04-16T15:18:09.613Z,12.52
2023-04-16T15:20:36.380Z,14.32
2023-04-16T15:23:03.297Z,10.95
2023-04-16T15:25:30.031Z,10.70
2023-04-16T15:27:56.733Z,13.52
2023-04-16T15:30:23.522Z,12.52
2023-04-16T15:32:50.377Z,11.48
2023-04-16T15:35:17.190Z,9.05
2023-04-16T15:37:44.273Z,9.13
2023-04-16T15:40:11.248Z,11.75
2023-04-16T15:42:38.078Z,8.65
2023-04-16T15:45:05.536Z,8.60
2023-04-16T15:47:32.436Z,8.38
2023-04-16T15:49:59.166Z,9.23
2023-04-16T15:52:26.096Z,12.60
2023-04-16T15:54:53.067Z,8.20
2023-04-16T15:57:20.337Z,12.13
2023-04-16T16:00:03.209Z,11.05
2023-04-16T16:02:32.679Z,10.25
2023-04-16T16:05:00.598Z,10.63
2023-04-16T16:07:27.563Z,15.50
2023-04-16T16:09:54.400Z,9.50
2023-04-16T16:12:21.948Z,9.95
2023-04-16T16:17:31.142Z,10.38
2023-04-16T16:19:59.429Z,13.50
2023-04-16T16:22:26.338Z,14.73
2023-04-16T16:25:00.069Z,12.40
2023-04-16T16:27:27.033Z,11.75
2023-04-16T16:29:53.833Z,13.10
2023-04-16T16:32:20.613Z,11.65
2023-04-16T16:34:47.318Z,14.75
2023-04-16T16:37:14.131Z,15.65
2023-04-16T16:39:40.984Z,15.23
2023-04-16T16:42:09.275Z,16.95
2023-04-16T16:44:36.778Z,15.13
2023-04-16T16:47:03.713Z,19.45
2023-04-16T16:49:30.591Z,22.75
2023-04-16T16:51:57.791Z,24.38
2023-04-16T16:54:24.546Z,20.83
2023-04-16T16:56:51.257Z,19.88
2023-04-16T16:59:18.022Z,20.10
2023-04-16T17:01:44.779Z,19.33
2023-04-16T17:04:11.574Z,26.27
2023-04-16T17:06:39.267Z,22.25
2023-04-16T17:09:07.226Z,20.40
2023-04-16T17:11:33.977Z,24.67
2023-04-16T17:14:00.914Z,24.88
2023-04-16T17:16:27.730Z,17.58
2023-04-16T17:18:54.646Z,20.67
2023-04-16T17:21:21.716Z,26.23
2023-04-16T17:23:48.489Z,23.55
2023-04-16T17:26:15.501Z,25.98
2023-04-16T17:28:42.179Z,24.40
2023-04-16T17:31:08.946Z,24.52
2023-04-16T17:33:35.935Z,30.08
2023-04-16T17:36:02.864Z,25.75
2023-04-16T17:38:29.667Z,29.02
2023-04-16T17:40:57.157Z,21.17
2023-04-16T17:43:24.279Z,27.10
2023-04-16T17:45:51.021Z,25.17
2023-04-16T17:48:17.788Z,29.88
2023-04-16T17:50:44.570Z,28.85
2023-04-16T17:53:11.333Z,20.67
2023-04-16T17:55:38.015Z,21.48
2023-04-16T17:58:04.891Z,22.48
2023-04-16T18:00:34.428Z,22.33
2023-04-16T18:03:01.230Z,18.92
2023-04-16T18:05:28.015Z,22.15
2023-04-16T18:07:55.735Z,21.73
2023-04-16T18:10:22.512Z,16.58
2023-04-16T18:12:49.271Z,16.98
2023-04-16T18:15:16.053Z,21.15
2023-04-16T18:17:42.834Z,18.52
2023-04-16T18:20:11.790Z,19.55
2023-04-16T18:25:34.356Z,20.08
2023-04-16T18:28:02.274Z,19.38
2023-04-16T18:30:29.452Z,18.75
2023-04-16T18:33:19.502Z,16.42
2023-04-16T18:35:42.996Z,19.92
2023-04-16T18:38:09.688Z,18.63
2023-04-16T18:40:37.249Z,24.00
2023-04-16T18:43:04.464Z,25.17
2023-04-16T18:48:00.228Z,18.33
2023-04-16T18:50:26.922Z,14.73
2023-04-16T18:52:58.130Z,15.63
2023-04-16T18:55:25.973Z,15.95
2023-04-16T18:57:53.439Z,26.38
2023-04-16T19:00:20.743Z,21.90
2023-04-16T19:02:47.733Z,19.17
2023-04-16T19:05:14.945Z,17.67
2023-04-16T19:07:42.183Z,25.58
2023-04-16T19:10:09.412Z,17.50
2023-04-16T19:12:36.350Z,18.90
2023-04-16T19:15:03.265Z,19.13
2023-04-16T19:17:30.051Z,19.13
2023-04-16T19:19:57.028Z,13.70
2023-04-16T19:22:23.796Z,26.50
2023-04-16T19:24:50.740Z,19.50
2023-04-16T19:27:17.470Z,18.85
2023-04-16T19:29:45.573Z,19.48
2023-04-16T19:32:14.056Z,27.33
2023-04-16T19:34:41.044Z,19.85
2023-04-16T19:37:07.785Z,19.23
2023-04-16T19:39:35.051Z,14.85
2023-04-16T19:42:03.770Z,22.38
2023-04-16T19:44:30.829Z,14.75
2023-04-16T19:46:57.547Z,17.83
2023-04-16T19:49:25.592Z,23.55
2023-04-16T19:51:53.128Z,27.48
2023-04-16T19:54:20.011Z,19.70
2023-04-16T19:56:49.122Z,17.42
2023-04-16T19:59:15.908Z,19.92
2023-04-16T20:01:42.691Z,21.85
2023-04-16T20:04:09.963Z,21.60
2023-04-16T20:06:37.121Z,19.48
2023-04-16T20:09:04.850Z,22.33
2023-04-16T20:11:31.656Z,19.23
2023-04-16T20:14:01.422Z,22.00
2023-04-16T20:16:28.427Z,20.30
2023-04-16T20:18:57.232Z,21.95
2023-04-16T20:21:25.603Z,18.75
2023-04-16T20:23:52.662Z,20.38
2023-04-16T20:26:19.530Z,20.98
2023-04-16T20:28:46.670Z,18.27
2023-04-16T20:31:14.317Z,23.92
2023-04-16T20:34:01.349Z,15.60
2023-04-16T20:36:28.312Z,18.27
2023-04-16T20:38:55.153Z,15.10
2023-04-16T20:41:22.698Z,26.60
2023-04-16T20:43:53.307Z,21.65
2023-04-16T20:46:24.569Z,18.13
2023-04-16T20:48:51.999Z,20.30
2023-04-16T20:51:19.339Z,22.50
2023-04-16T20:53:46.277Z,16.70
2023-04-16T20:56:15.155Z,21.05
2023-04-16T20:58:43.040Z,14.55
2023-04-16T21:01:10.227Z,16.08
2023-04-16T21:03:37.722Z,19.35
2023-04-16T21:06:04.920Z,23.05
2023-04-16T21:08:31.950Z,19.52
2023-04-16T21:10:58.891Z,16.02
2023-04-16T21:13:25.762Z,17.70
2023-04-16T21:15:53.094Z,20.42
2023-04-16T21:18:20.175Z,19.90
2023-04-16T21:20:47.034Z,20.15
2023-04-16T21:23:13.923Z,20.83
2023-04-16T21:25:41.197Z,21.15
2023-04-16T21:28:08.152Z,21.00
2023-04-16T21:30:35.002Z,15.48
2023-04-16T21:33:01.897Z,21.60
2023-04-16T21:35:28.727Z,25.63
2023-04-16T21:37:55.511Z,28.02
2023-04-16T21:40:22.365Z,27.88
2023-04-16T21:42:49.245Z,27.35
2023-04-16T21:45:16.126Z,21.33
2023-04-16T21:47:43.009Z,19.55
2023-04-16T21:50:10.476Z,23.10
2023-04-16T21:52:41.015Z,34.05
2023-04-16T21:55:09.821Z,20.55
2023-04-16T21:57:36.688Z,26.45
2023-04-16T22:00:12.147Z,29.40
2023-04-16T22:02:39.285Z,19.35
2023-04-16T22:05:06.508Z,27.23
2023-04-16T22:07:33.250Z,21.65
2023-04-16T22:10:00.154Z,22.65
2023-04-16T22:12:26.917Z,21.20
2023-04-16T22:15:02.385Z,19.63
2023-04-16T22:17:30.497Z,17.67
2023-04-16T22:20:00.557Z,18.13
2023-04-16T22:22:27.361Z,18.65
2023-04-16T22:24:54.237Z,18.48
2023-04-16T22:27:21.554Z,17.30
2023-04-16T22:29:48.395Z,23.50
2023-04-16T22:32:15.656Z,18.35
2023-04-16T22:34:42.556Z,21.13
2023-04-16T22:37:09.358Z,22.55
2023-04-16T22:39:36.207Z,19.08
2023-04-16T22:42:03.078Z,25.92
2023-04-16T22:44:29.947Z,20.75
2023-04-16T22:46:57.093Z,24.33
2023-04-16T22:49:24.047Z,20.45
2023-04-16T22:51:50.969Z,26.02
2023-04-16T22:54:17.975Z,27.05
2023-04-16T22:56:44.831Z,19.77
2023-04-16T22:59:11.820Z,20.27
2023-04-16T23:01:39.053Z,17.40
2023-04-16T23:04:06.128Z,22.40
2023-04-16T23:06:33.652Z,27.45
2023-04-16T23:09:00.429Z,21.02
2023-04-16T23:11:27.508Z,25.45
2023-04-16T23:13:54.347Z,18.92
2023-04-16T23:16:21.192Z,20.83
2023-04-16T23:18:48.025Z,20.27
2023-04-16T23:21:14.783Z,20.70
2023-04-16T23:23:41.637Z,25.42
2023-04-16T23:26:08.468Z,19.33
2023-04-16T23:28:35.343Z,25.95
2023-04-16T23:31:03.013Z,19.45
2023-04-16T23:33:30.558Z,16.88
2023-04-16T23:35:57.430Z,16.35
2023-04-16T23:38:24.769Z,14.43
2023-04-16T23:40:51.730Z,18.38
2023-04-16T23:43:18.512Z,18.80
2023-04-16T23:45:45.341Z,22.55
2023-04-16T23:48:12.312Z,22.67
2023-04-16T23:50:39.093Z,15.35
2023-04-16T23:53:05.883Z,16.00
2023-04-16T23:55:32.669Z,17.13
2023-04-16T23:57:59.572Z,17.05
